Time;durP1;ratioP1;P1;durP2;ratioP2;P2;SDS_P1;SDS_P2;PMS_P1;PMS_P2;Temp;Humidity;BMP_temperature;BMP_pressure;BME280_temperature;BME280_humidity;BME280_pressure;Samples;Min_cycle;Max_cycle;Signal;HPM_P1;HPM_P2
2022/10/17 00:02:06;;;;;;;15.68;5.10;;;;;;;;;;5014290;28;20025;-74
2022/10/17 00:04:32;;;;;;;16.30;5.85;;;;;;;;;;5032072;28;20033;-74
2022/10/17 00:06:58;;;;;;;16.25;5.90;;;;;;;;;;5035562;28;20033;-75
2022/10/17 00:09:24;;;;;;;18.40;5.53;;;;;;;;;;5036512;28;20108;-75
2022/10/17 00:11:50;;;;;;;14.18;5.45;;;;;;;;;;5035949;28;20029;-75
2022/10/17 00:14:16;;;;;;;18.02;5.93;;;;;;;;;;5035886;28;20025;-76
2022/10/17 00:16:42;;;;;;;12.32;4.82;;;;;;;;;;5036103;28;20028;-77
2022/10/17 00:19:08;;;;;;;15.00;5.40;;;;;;;;;;5035715;28;20025;-75
2022/10/17 00:21:34;;;;;;;20.23;5.07;;;;;;;;;;5035658;28;20022;-75
2022/10/17 00:24:00;;;;;;;19.92;5.65;;;;;;;;;;5035737;28;20032;-75
2022/10/17 00:26:28;;;;;;;17.58;5.50;;;;;;;;;;5035340;28;20017;-77
2022/10/17 00:28:54;;;;;;;15.93;4.93;;;;;;;;;;5035607;28;20025;-76
2022/10/17 00:31:20;;;;;;;14.15;4.95;;;;;;;;;;5035685;28;20105;-75
2022/10/17 00:33:47;;;;;;;17.02;5.35;;;;;;;;;;5035615;28;20489;-76
2022/10/17 00:36:12;;;;;;;16.67;5.55;;;;;;;;;;5017689;28;20025;-76
2022/10/17 00:38:39;;;;;;;14.30;5.13;;;;;;;;;;5035781;28;20022;-76
2022/10/17 00:41:05;;;;;;;11.35;5.13;;;;;;;;;;5035574;28;20033;-75
2022/10/17 00:43:50;;;;;;;13.18;4.70;;;;;;;;;;5035691;28;20394;-76
2022/10/17 00:46:16;;;;;;;19.33;4.60;;;;;;;;;;5057191;23;20049;-73
2022/10/17 00:48:42;;;;;;;12.02;4.63;;;;;;;;;;5035106;28;20033;-71
2022/10/17 00:51:08;;;;;;;14.57;5.28;;;;;;;;;;5035355;28;20037;-72
2022/10/17 00:53:36;;;;;;;20.25;5.40;;;;;;;;;;5033830;28;20067;-73
2022/10/17 00:56:02;;;;;;;17.95;4.95;;;;;;;;;;5034910;28;20029;-73
2022/10/17 00:58:28;;;;;;;13.00;4.43;;;;;;;;;;5035549;28;20033;-73
2022/10/17 01:00:54;;;;;;;15.02;4.80;;;;;;;;;;5035589;28;20108;-72
2022/10/17 01:03:20;;;;;;;12.23;4.10;;;;;;;;;;5035393;28;20029;-72
2022/10/17 01:05:46;;;;;;;14.35;4.28;;;;;;;;;;5036130;28;20022;-71
2022/10/17 01:08:12;;;;;;;14.57;4.35;;;;;;;;;;5038665;28;20052;-72
2022/10/17 01:10:59;;;;;;;19.33;4.53;;;;;;;;;;5035758;28;20053;-72
2022/10/17 01:13:30;;;;;;;19.27;4.53;;;;;;;;;;5035193;28;20083;-72
2022/10/17 01:15:56;;;;;;;21.15;4.65;;;;;;;;;;5037475;28;20389;-72
2022/10/17 01:18:21;;;;;;;17.25;4.20;;;;;;;;;;5034003;28;20029;-72
2022/10/17 01:21:06;;;;;;;10.55;4.10;;;;;;;;;;5034982;28;20034;-72
2022/10/17 01:23:38;;;;;;;13.63;4.38;;;;;;;;;;5035681;28;20040;-72
2022/10/17 01:26:15;;;;;;;15.65;4.18;;;;;;;;;;5034331;28;20116;-73
2022/10/17 01:29:07;;;;;;;16.15;4.10;;;;;;;;;;5034525;28;20086;-71
2022/10/17 01:31:41;;;;;;;13.48;3.95;;;;;;;;;;5030709;28;20038;-73
2022/10/17 01:34:07;;;;;;;13.65;4.10;;;;;;;;;;5034418;28;20076;-72
2022/10/17 01:36:36;;;;;;;13.70;3.33;;;;;;;;;;5034263;28;20478;-73
2022/10/17 01:39:07;;;;;;;15.57;3.58;;;;;;;;;;5034533;28;20490;-72
2022/10/17 01:41:40;;;;;;;19.40;4.60;;;;;;;;;;5034289;28;20459;-71
2022/10/17 01:44:12;;;;;;;17.42;3.95;;;;;;;;;;5016685;28;20036;-72
2022/10/17 01:46:45;;;;;;;14.50;3.78;;;;;;;;;;5015909;28;20033;-71
2022/10/17 01:49:13;;;;;;;21.52;4.60;;;;;;;;;;5034193;28;20022;-73
2022/10/17 01:51:42;;;;;;;15.77;3.90;;;;;;;;;;5032997;28;20485;-71
2022/10/17 01:54:14;;;;;;;12.23;3.40;;;;;;;;;;5033802;28;20028;-72
2022/10/17 01:56:41;;;;;;;11.60;3.55;;;;;;;;;;5033591;28;20489;-72
2022/10/17 01:59:11;;;;;;;10.02;3.28;;;;;;;;;;5033796;28;20018;-72
2022/10/17 02:01:38;;;;;;;17.02;3.63;;;;;;;;;;5033700;28;20026;-72
2022/10/17 02:04:05;;;;;;;17.60;3.65;;;;;;;;;;5033686;28;20025;-71
2022/10/17 02:06:34;;;;;;;18.00;3.55;;;;;;;;;;5033419;28;20406;-72
2022/10/17 02:09:01;;;;;;;18.45;3.85;;;;;;;;;;5033561;28;20029;-73
2022/10/17 02:11:27;;;;;;;11.82;3.47;;;;;;;;;;5033657;28;20518;-73
2022/10/17 02:14:02;;;;;;;17.20;3.30;;;;;;;;;;5033712;28;20030;-72
2022/10/17 02:16:37;;;;;;;16.65;3.38;;;;;;;;;;5033246;28;20024;-72
2022/10/17 02:19:21;;;;;;;14.40;3.65;;;;;;;;;;5033424;28;20017;-71
2022/10/17 02:21:52;;;;;;;10.60;3.35;;;;;;;;;;5033350;28;20551;-72
2022/10/17 02:24:30;;;;;;;11.45;3.13;;;;;;;;;;5033386;28;20029;-70
2022/10/17 02:27:03;;;;;;;11.10;3.28;;;;;;;;;;5033075;28;20363;-72
2022/10/17 02:29:32;;;;;;;15.23;4.15;;;;;;;;;;5032950;28;20022;-72
2022/10/17 02:32:05;;;;;;;9.20;2.85;;;;;;;;;;5033148;28;20035;-71
2022/10/17 02:34:37;;;;;;;11.18;3.08;;;;;;;;;;5033154;28;20100;-71
2022/10/17 02:37:04;;;;;;;12.43;3.20;;;;;;;;;;5032726;28;20033;-71
2022/10/17 02:39:31;;;;;;;9.23;3.38;;;;;;;;;;5033055;28;20041;-72
2022/10/17 02:41:58;;;;;;;14.45;3.00;;;;;;;;;;5032968;28;20104;-72
2022/10/17 02:44:25;;;;;;;18.25;3.65;;;;;;;;;;5030238;28;20104;-73
2022/10/17 02:46:59;;;;;;;22.73;4.30;;;;;;;;;;5032698;28;20108;-72
2022/10/17 02:49:29;;;;;;;13.38;3.42;;;;;;;;;;5032783;28;20119;-72
2022/10/17 02:52:10;;;;;;;12.23;3.15;;;;;;;;;;5032874;28;20091;-72
2022/10/17 02:54:39;;;;;;;17.45;3.40;;;;;;;;;;5033555;28;20488;-72
2022/10/17 02:57:10;;;;;;;10.38;3.40;;;;;;;;;;5033491;28;20029;-73
2022/10/17 02:59:36;;;;;;;11.75;3.10;;;;;;;;;;5016034;28;20092;-73
2022/10/17 03:02:06;;;;;;;11.98;3.15;;;;;;;;;;5034016;28;20056;-72
2022/10/17 03:04:32;;;;;;;12.18;3.20;;;;;;;;;;5033104;28;20021;-72
2022/10/17 03:06:58;;;;;;;10.88;3.08;;;;;;;;;;5032310;28;20128;-72
2022/10/17 03:09:24;;;;;;;13.20;2.90;;;;;;;;;;5032501;28;20057;-72
2022/10/17 03:11:49;;;;;;;10.30;3.13;;;;;;;;;;5032307;28;20206;-72
2022/10/17 03:14:16;;;;;;;6.95;2.30;;;;;;;;;;5032442;28;20428;-72
2022/10/17 03:16:42;;;;;;;6.30;2.72;;;;;;;;;;5033399;28;20079;-72
2022/10/17 03:19:07;;;;;;;9.57;2.80;;;;;;;;;;5032541;28;20025;-72
2022/10/17 03:21:35;;;;;;;12.73;2.60;;;;;;;;;;5014923;28;20390;-72
2022/10/17 03:24:01;;;;;;;12.45;3.30;;;;;;;;;;5032297;28;20356;-72
2022/10/17 03:26:28;;;;;;;12.30;2.85;;;;;;;;;;5032028;28;20030;-72
2022/10/17 03:28:54;;;;;;;14.60;2.55;;;;;;;;;;5032199;28;20441;-71
2022/10/17 03:31:20;;;;;;;7.97;2.83;;;;;;;;;;5032422;28;20087;-72
2022/10/17 03:33:46;;;;;;;6.95;2.38;;;;;;;;;;5033076;28;20305;-72
2022/10/17 03:36:14;;;;;;;13.23;3.03;;;;;;;;;;5031891;28;20029;-72
2022/10/17 03:38:40;;;;;;;11.40;3.05;;;;;;;;;;5032081;28;20029;-71
2022/10/17 03:41:06;;;;;;;12.30;2.72;;;;;;;;;;5031496;28;20402;-72
2022/10/17 03:43:32;;;;;;;9.77;2.55;;;;;;;;;;5032890;28;20032;-70
2022/10/17 03:45:58;;;;;;;10.48;3.03;;;;;;;;;;5031585;28;20072;-71
2022/10/17 03:48:24;;;;;;;9.90;2.70;;;;;;;;;;5031747;28;20037;-70
2022/10/17 03:50:50;;;;;;;6.07;2.90;;;;;;;;;;5031914;28;20032;-73
2022/10/17 03:53:16;;;;;;;9.98;2.60;;;;;;;;;;5031974;28;20025;-71
2022/10/17 03:55:43;;;;;;;8.35;2.58;;;;;;;;;;5031488;28;20789;-70
2022/10/17 03:58:09;;;;;;;14.38;3.40;;;;;;;;;;5031730;28;20029;-71
2022/10/17 04:00:35;;;;;;;12.05;2.95;;;;;;;;;;5014230;28;20029;-72
2022/10/17 04:03:01;;;;;;;7.28;2.53;;;;;;;;;;5031750;28;20025;-72
2022/10/17 04:05:27;;;;;;;7.07;2.60;;;;;;;;;;5032457;28;20030;-72
2022/10/17 04:07:53;;;;;;;15.45;3.03;;;;;;;;;;5031766;28;20474;-73
2022/10/17 04:10:19;;;;;;;10.52;2.67;;;;;;;;;;5032032;28;20026;-71
2022/10/17 04:12:45;;;;;;;11.95;2.83;;;;;;;;;;5031676;28;20317;-72
2022/10/17 04:15:11;;;;;;;11.85;3.13;;;;;;;;;;5032847;28;20470;-72
2022/10/17 04:17:37;;;;;;;13.00;3.83;;;;;;;;;;5031282;28;20038;-72
2022/10/17 04:20:03;;;;;;;6.85;2.80;;;;;;;;;;5031684;28;20029;-72
2022/10/17 04:22:29;;;;;;;8.43;2.95;;;;;;;;;;5031616;28;20034;-73
2022/10/17 04:24:55;;;;;;;12.35;3.10;;;;;;;;;;5031541;28;20036;-72
2022/10/17 04:27:21;;;;;;;20.15;2.60;;;;;;;;;;5031792;28;20041;-73
2022/10/17 04:29:47;;;;;;;16.50;2.83;;;;;;;;;;5031632;28;20032;-73
2022/10/17 04:32:13;;;;;;;12.40;2.80;;;;;;;;;;5031713;28;20025;-73
2022/10/17 04:34:39;;;;;;;7.93;2.53;;;;;;;;;;5031624;28;20033;-73
2022/10/17 04:37:05;;;;;;;11.70;3.08;;;;;;;;;;5031488;28;20405;-71
2022/10/17 04:39:31;;;;;;;13.57;3.08;;;;;;;;;;5032000;28;20025;-73
2022/10/17 04:41:57;;;;;;;10.95;3.22;;;;;;;;;;5031720;28;20421;-73
2022/10/17 04:44:23;;;;;;;15.35;3.08;;;;;;;;;;5031275;28;20375;-73
2022/10/17 04:46:49;;;;;;;6.75;2.88;;;;;;;;;;5031081;28;20445;-72
2022/10/17 04:49:15;;;;;;;8.77;2.90;;;;;;;;;;5032066;28;20052;-72
2022/10/17 04:51:41;;;;;;;9.43;2.83;;;;;;;;;;5033296;28;20079;-72
2022/10/17 04:54:07;;;;;;;5.75;2.47;;;;;;;;;;5035793;28;20105;-73
2022/10/17 04:56:33;;;;;;;10.18;2.83;;;;;;;;;;5035422;28;20021;-71
2022/10/17 04:58:59;;;;;;;10.15;2.95;;;;;;;;;;5035735;28;20033;-72
2022/10/17 05:01:25;;;;;;;8.90;2.55;;;;;;;;;;5038420;28;20096;-73
2022/10/17 05:03:52;;;;;;;13.40;2.83;;;;;;;;;;5035401;28;20466;-72
2022/10/17 05:06:19;;;;;;;5.60;2.63;;;;;;;;;;5035097;28;20501;-73
2022/10/17 05:08:45;;;;;;;14.15;2.60;;;;;;;;;;5034722;28;20108;-73
2022/10/17 05:11:22;;;;;;;5.53;2.63;;;;;;;;;;5034743;28;20096;-73
2022/10/17 05:14:06;;;;;;;7.00;2.65;;;;;;;;;;5034894;28;20029;-73
2022/10/17 05:16:32;;;;;;;7.38;2.67;;;;;;;;;;5016739;28;20047;-73
2022/10/17 05:18:58;;;;;;;8.85;2.50;;;;;;;;;;5034771;28;20068;-73
2022/10/17 05:21:25;;;;;;;10.20;3.60;;;;;;;;;;5034890;28;20032;-73
2022/10/17 05:23:51;;;;;;;9.80;2.92;;;;;;;;;;5034502;28;20033;-73
2022/10/17 05:26:17;;;;;;;10.45;2.63;;;;;;;;;;5034621;28;20034;-75
2022/10/17 05:28:43;;;;;;;8.88;2.65;;;;;;;;;;5034646;28;20079;-76
2022/10/17 05:31:09;;;;;;;12.25;2.67;;;;;;;;;;5034716;28;20044;-73
2022/10/17 05:33:36;;;;;;;11.77;3.15;;;;;;;;;;5034687;28;20493;-73
2022/10/17 05:36:02;;;;;;;6.40;2.97;;;;;;;;;;5034481;28;20025;-74
2022/10/17 05:38:29;;;;;;;6.00;2.80;;;;;;;;;;5016449;28;20048;-74
2022/10/17 05:40:58;;;;;;;9.85;2.63;;;;;;;;;;5033984;28;20398;-73
2022/10/17 05:43:24;;;;;;;10.43;2.85;;;;;;;;;;5034445;28;20033;-72
2022/10/17 05:45:50;;;;;;;6.28;2.53;;;;;;;;;;5034908;28;20045;-75
2022/10/17 05:48:16;;;;;;;7.28;2.97;;;;;;;;;;5035668;28;20033;-74
2022/10/17 05:50:43;;;;;;;7.13;2.92;;;;;;;;;;5035729;28;20025;-75
2022/10/17 05:53:09;;;;;;;14.63;2.55;;;;;;;;;;5035853;28;20028;-75
2022/10/17 05:55:35;;;;;;;6.15;2.80;;;;;;;;;;5035848;28;20025;-75
2022/10/17 05:58:01;;;;;;;7.72;3.08;;;;;;;;;;5035411;28;20021;-74
2022/10/17 06:00:27;;;;;;;11.88;2.75;;;;;;;;;;5036230;28;20580;-75
2022/10/17 06:02:53;;;;;;;8.32;2.80;;;;;;;;;;5017683;28;20025;-73
2022/10/17 06:05:19;;;;;;;8.35;2.50;;;;;;;;;;5035875;28;20051;-74
2022/10/17 06:07:45;;;;;;;6.95;2.90;;;;;;;;;;5035321;28;20026;-73
2022/10/17 06:10:13;;;;;;;11.07;3.08;;;;;;;;;;5034359;28;20075;-73
2022/10/17 06:12:39;;;;;;;6.25;2.65;;;;;;;;;;5034816;28;20024;-74
2022/10/17 06:15:06;;;;;;;12.05;3.63;;;;;;;;;;5034767;28;20026;-73
2022/10/17 06:17:32;;;;;;;13.77;3.38;;;;;;;;;;5034454;28;20100;-73
2022/10/17 06:19:58;;;;;;;6.35;3.08;;;;;;;;;;5015521;28;20509;-75
2022/10/17 06:22:23;;;;;;;8.82;3.10;;;;;;;;;;5040964;28;20021;-75
2022/10/17 06:24:51;;;;;;;9.00;3.42;;;;;;;;;;5036420;28;20079;-76
2022/10/17 06:27:17;;;;;;;9.48;4.13;;;;;;;;;;5035237;28;20030;-73
2022/10/17 06:29:43;;;;;;;12.18;3.70;;;;;;;;;;5043704;28;20017;-74
2022/10/17 06:32:09;;;;;;;14.52;3.85;;;;;;;;;;5026439;28;20032;-73
2022/10/17 06:34:35;;;;;;;6.80;3.10;;;;;;;;;;5034533;28;20026;-74
2022/10/17 06:37:01;;;;;;;14.85;3.90;;;;;;;;;;5032903;28;20118;-73
2022/10/17 06:39:32;;;;;;;9.70;3.55;;;;;;;;;;5037307;28;20580;-73
2022/10/17 06:41:58;;;;;;;8.68;3.30;;;;;;;;;;5036114;28;20075;-72
2022/10/17 06:44:27;;;;;;;9.77;3.22;;;;;;;;;;5032926;28;20438;-76
2022/10/17 06:46:53;;;;;;;6.90;3.08;;;;;;;;;;5059266;22;20099;-74
2022/10/17 06:49:19;;;;;;;7.88;3.38;;;;;;;;;;5039027;28;20437;-75
2022/10/17 06:51:45;;;;;;;9.18;3.33;;;;;;;;;;5036624;28;20022;-76
2022/10/17 06:54:11;;;;;;;6.28;3.30;;;;;;;;;;5035663;28;20025;-75
2022/10/17 06:56:37;;;;;;;5.97;2.97;;;;;;;;;;5035753;28;20026;-74
2022/10/17 06:59:03;;;;;;;6.55;3.03;;;;;;;;;;5037839;28;20037;-74
2022/10/17 07:01:30;;;;;;;8.75;3.33;;;;;;;;;;5035369;28;20033;-75
2022/10/17 07:03:56;;;;;;;12.85;3.60;;;;;;;;;;5034358;28;20036;-77
2022/10/17 07:06:23;;;;;;;10.52;3.42;;;;;;;;;;5033992;28;20034;-77
2022/10/17 07:08:49;;;;;;;20.77;6.90;;;;;;;;;;5034631;28;20025;-75
2022/10/17 07:11:17;;;;;;;12.57;4.43;;;;;;;;;;5034034;28;20025;-76
2022/10/17 07:13:43;;;;;;;14.50;4.60;;;;;;;;;;5031986;28;20057;-76
2022/10/17 07:16:09;;;;;;;9.48;4.10;;;;;;;;;;5033518;28;20044;-76
2022/10/17 07:18:35;;;;;;;13.10;4.25;;;;;;;;;;5017096;28;20166;-74
2022/10/17 07:21:02;;;;;;;22.38;4.80;;;;;;;;;;5017735;28;20033;-76
2022/10/17 07:23:28;;;;;;;7.15;3.20;;;;;;;;;;5033782;28;20442;-76
2022/10/17 07:26:01;;;;;;;6.65;3.45;;;;;;;;;;5034017;28;20108;-76
2022/10/17 07:28:27;;;;;;;13.10;5.03;;;;;;;;;;5034438;28;20040;-75
2022/10/17 07:30:53;;;;;;;11.27;5.03;;;;;;;;;;5016987;28;20053;-75
2022/10/17 07:33:20;;;;;;;9.13;4.18;;;;;;;;;;5034781;28;20026;-74
2022/10/17 07:35:45;;;;;;;11.93;3.30;;;;;;;;;;5033732;28;20021;-75
2022/10/17 07:38:11;;;;;;;8.98;3.03;;;;;;;;;;5033521;28;20497;-75
2022/10/17 07:40:37;;;;;;;14.52;3.55;;;;;;;;;;5033702;28;20051;-76
2022/10/17 07:43:03;;;;;;;13.48;3.60;;;;;;;;;;5033712;28;20039;-75
2022/10/17 07:45:29;;;;;;;10.20;4.22;;;;;;;;;;5016094;28;20060;-74
2022/10/17 07:47:56;;;;;;;16.23;3.50;;;;;;;;;;5033077;28;20075;-76
2022/10/17 07:50:22;;;;;;;14.65;3.55;;;;;;;;;;5033563;28;20032;-76
2022/10/17 07:52:48;;;;;;;11.10;3.58;;;;;;;;;;5033392;28;20095;-74
2022/10/17 07:55:14;;;;;;;9.75;3.22;;;;;;;;;;5033423;28;20363;-75
2022/10/17 07:57:40;;;;;;;11.98;3.50;;;;;;;;;;5033566;28;20534;-76
2022/10/17 08:00:07;;;;;;;9.98;3.60;;;;;;;;;;5036036;28;20033;-76
2022/10/17 08:02:33;;;;;;;5.35;3.00;;;;;;;;;;5033674;28;20724;-74
2022/10/17 08:04:59;;;;;;;10.07;4.53;;;;;;;;;;5034002;28;20081;-76
2022/10/17 08:07:25;;;;;;;8.93;3.67;;;;;;;;;;5016108;28;20029;-76
2022/10/17 08:09:51;;;;;;;7.75;3.53;;;;;;;;;;5033938;28;20133;-76
2022/10/17 08:12:17;;;;;;;7.32;2.95;;;;;;;;;;5034639;28;20029;-74
2022/10/17 08:14:43;;;;;;;6.10;3.22;;;;;;;;;;5034454;28;20028;-76
2022/10/17 08:17:09;;;;;;;12.75;3.08;;;;;;;;;;5033049;28;20101;-76
2022/10/17 08:19:39;;;;;;;9.48;3.92;;;;;;;;;;5033410;28;20052;-75
2022/10/17 08:22:05;;;;;;;10.40;3.45;;;;;;;;;;5032817;28;20085;-74
2022/10/17 08:24:31;;;;;;;11.25;3.33;;;;;;;;;;5034239;28;20313;-76
2022/10/17 08:26:57;;;;;;;12.05;3.70;;;;;;;;;;5035730;28;20079;-74
2022/10/17 08:29:23;;;;;;;13.77;4.15;;;;;;;;;;5020971;28;20022;-75
2022/10/17 08:31:50;;;;;;;12.20;3.10;;;;;;;;;;5038985;28;20029;-75
2022/10/17 08:34:16;;;;;;;7.15;3.13;;;;;;;;;;5041582;28;20041;-75
2022/10/17 08:36:42;;;;;;;7.55;3.00;;;;;;;;;;5041347;28;20037;-76
2022/10/17 08:39:08;;;;;;;9.20;2.83;;;;;;;;;;5045566;28;20029;-74
2022/10/17 08:41:53;;;;;;;11.40;3.10;;;;;;;;;;5056007;28;20018;-75
2022/10/17 08:44:19;;;;;;;;;;;;;;;;;;5060297;28;20073;-75
2022/10/17 08:46:46;;;;;;;10.45;3.10;;;;;;;;;;5058311;28;20393;-75
2022/10/17 08:49:16;;;;;;;10.43;3.40;;;;;;;;;;5057621;28;20080;-77
2022/10/17 08:52:02;;;;;;;7.78;3.42;;;;;;;;;;5057013;28;20037;-75
2022/10/17 08:54:54;;;;;;;12.73;3.75;;;;;;;;;;5054390;28;20042;-76
2022/10/17 08:57:20;;;;;;;19.38;3.42;;;;;;;;;;5023778;28;20034;-75
2022/10/17 08:59:50;;;;;;;12.45;4.38;;;;;;;;;;5045648;28;20136;-74
2022/10/17 09:02:22;;;;;;;23.08;4.18;;;;;;;;;;5038539;28;20072;-76
2022/10/17 09:05:09;;;;;;;6.25;3.28;;;;;;;;;;5019647;28;20025;-76
2022/10/17 09:07:48;;;;;;;8.73;3.15;;;;;;;;;;5036430;28;20036;-75
2022/10/17 09:10:28;;;;;;;14.48;3.35;;;;;;;;;;5035912;28;20109;-75
2022/10/17 09:13:13;;;;;;;11.70;3.17;;;;;;;;;;5035069;28;20040;-74
2022/10/17 09:15:47;;;;;;;13.50;3.63;;;;;;;;;;5035511;28;20129;-76
2022/10/17 09:18:16;;;;;;;11.77;3.03;;;;;;;;;;5036201;28;20029;-76
2022/10/17 09:20:57;;;;;;;6.93;3.30;;;;;;;;;;5036545;28;20029;-74
2022/10/17 09:23:25;;;;;;;9.52;3.20;;;;;;;;;;5038457;28;20037;-75
2022/10/17 09:25:55;;;;;;;5.78;3.20;;;;;;;;;;5035212;28;20107;-77
2022/10/17 09:28:25;;;;;;;9.93;3.22;;;;;;;;;;5034695;28;20029;-75
2022/10/17 09:30:56;;;;;;;9.65;3.53;;;;;;;;;;5036145;28;20022;-74
2022/10/17 09:33:27;;;;;;;7.55;2.90;;;;;;;;;;5034894;28;20107;-74
2022/10/17 09:35:53;;;;;;;7.45;2.80;;;;;;;;;;5035340;28;20028;-75
2022/10/17 09:38:20;;;;;;;12.20;4.00;;;;;;;;;;5033838;28;20036;-74
2022/10/17 09:40:58;;;;;;;9.00;3.22;;;;;;;;;;5036262;28;20030;-74
2022/10/17 09:43:25;;;;;;;11.18;3.22;;;;;;;;;;5034856;28;20083;-76
2022/10/17 09:46:05;;;;;;;14.02;4.00;;;;;;;;;;5035552;28;20025;-75
2022/10/17 09:48:45;;;;;;;10.93;3.08;;;;;;;;;;5039915;28;20026;-75
2022/10/17 09:51:12;;;;;;;10.52;3.00;;;;;;;;;;5052158;28;20034;-78
2022/10/17 09:53:40;;;;;;;9.10;3.30;;;;;;;;;;5059507;28;20021;-76
2022/10/17 09:56:12;;;;;;;13.52;2.80;;;;;;;;;;5045919;28;20488;-76
2022/10/17 09:58:41;;;;;;;18.88;3.55;;;;;;;;;;5038179;28;20482;-77
2022/10/17 10:01:18;;;;;;;17.05;3.65;;;;;;;;;;5035480;28;20029;-76
2022/10/17 10:03:43;;;;;;;10.02;3.38;;;;;;;;;;5034116;28;20021;-74
2022/10/17 10:06:14;;;;;;;8.40;3.25;;;;;;;;;;5033498;28;20036;-76
2022/10/17 10:08:49;;;;;;;12.70;5.07;;;;;;;;;;5033420;28;20538;-75
2022/10/17 10:11:16;;;;;;;14.85;3.75;;;;;;;;;;5033817;28;20026;-74
2022/10/17 10:13:42;;;;;;;8.20;3.78;;;;;;;;;;5034307;28;20040;-74
2022/10/17 10:16:17;;;;;;;12.50;3.30;;;;;;;;;;5034451;28;20346;-74
2022/10/17 10:18:44;;;;;;;13.32;3.50;;;;;;;;;;5034825;28;20025;-74
2022/10/17 10:21:16;;;;;;;16.92;3.50;;;;;;;;;;5034441;28;20471;-74
2022/10/17 10:23:43;;;;;;;10.40;3.42;;;;;;;;;;5018031;28;20029;-75
2022/10/17 10:26:23;;;;;;;11.73;3.83;;;;;;;;;;5034921;28;20037;-75
2022/10/17 10:28:54;;;;;;;10.48;4.07;;;;;;;;;;5034328;28;20025;-75
2022/10/17 10:31:25;;;;;;;12.73;3.97;;;;;;;;;;5017459;28;20025;-75
2022/10/17 10:33:51;;;;;;;15.65;3.78;;;;;;;;;;5035158;28;20501;-76
2022/10/17 10:36:21;;;;;;;13.95;3.85;;;;;;;;;;5036315;28;20018;-75
2022/10/17 10:38:54;;;;;;;16.42;3.70;;;;;;;;;;5036462;28;20049;-75
2022/10/17 10:41:20;;;;;;;14.70;3.63;;;;;;;;;;5037293;28;20049;-74
2022/10/17 10:43:47;;;;;;;11.00;3.33;;;;;;;;;;5023007;28;20029;-74
2022/10/17 10:46:23;;;;;;;19.05;3.90;;;;;;;;;;5042753;28;20049;-74
2022/10/17 10:48:51;;;;;;;12.10;3.75;;;;;;;;;;5045239;28;20076;-76
2022/10/17 10:51:20;;;;;;;13.45;3.90;;;;;;;;;;5042696;28;20025;-74
2022/10/17 10:53:57;;;;;;;17.35;4.20;;;;;;;;;;5040449;28;20053;-74
2022/10/17 10:56:30;;;;;;;13.93;4.00;;;;;;;;;;5040977;28;20099;-73
2022/10/17 10:59:19;;;;;;;16.25;3.88;;;;;;;;;;5052369;28;20065;-75
2022/10/17 11:01:53;;;;;;;11.20;4.25;;;;;;;;;;5009450;28;20063;-74
2022/10/17 11:04:31;;;;;;;7.38;3.88;;;;;;;;;;5055797;28;20014;-75
2022/10/17 11:07:04;;;;;;;14.82;3.67;;;;;;;;;;5048191;28;20029;-75
2022/10/17 11:09:50;;;;;;;19.73;3.90;;;;;;;;;;5046163;28;20147;-74
2022/10/17 11:12:22;;;;;;;12.40;4.07;;;;;;;;;;5040929;28;20025;-74
2022/10/17 11:14:57;;;;;;;14.63;3.33;;;;;;;;;;5042508;28;20030;-76
2022/10/17 11:17:30;;;;;;;11.30;3.85;;;;;;;;;;5040542;28;20033;-76
2022/10/17 11:20:00;;;;;;;16.10;3.85;;;;;;;;;;5037946;28;20029;-75
2022/10/17 11:22:27;;;;;;;12.23;3.97;;;;;;;;;;5034723;28;20493;-74
2022/10/17 11:24:58;;;;;;;11.25;4.07;;;;;;;;;;5035339;28;20049;-75
2022/10/17 11:27:25;;;;;;;15.13;4.13;;;;;;;;;;5034127;28;20021;-75
2022/10/17 11:29:51;;;;;;;13.50;3.90;;;;;;;;;;5036632;28;20026;-74
2022/10/17 11:32:17;;;;;;;16.60;4.30;;;;;;;;;;5016363;28;20101;-74
2022/10/17 11:34:47;;;;;;;10.15;3.35;;;;;;;;;;5033316;28;20122;-74
2022/10/17 11:37:24;;;;;;;11.57;3.90;;;;;;;;;;5038133;28;20021;-73
2022/10/17 11:39:50;;;;;;;18.67;3.50;;;;;;;;;;5033613;28;20026;-73
2022/10/17 11:42:23;;;;;;;9.13;3.80;;;;;;;;;;5033570;28;20028;-74
2022/10/17 11:44:53;;;;;;;10.95;3.47;;;;;;;;;;5033345;28;20018;-74
2022/10/17 11:47:19;;;;;;;12.63;3.67;;;;;;;;;;5033103;28;20040;-74
2022/10/17 11:49:46;;;;;;;9.15;4.25;;;;;;;;;;5033532;28;20037;-74
2022/10/17 11:52:16;;;;;;;13.45;3.60;;;;;;;;;;5033580;28;20491;-74
2022/10/17 11:54:45;;;;;;;7.75;3.63;;;;;;;;;;5033985;28;20045;-72
2022/10/17 11:57:26;;;;;;;17.95;4.03;;;;;;;;;;5033354;28;20060;-73
2022/10/17 11:59:52;;;;;;;10.20;4.10;;;;;;;;;;5016137;28;20030;-75
2022/10/17 12:02:40;;;;;;;16.75;3.97;;;;;;;;;;5033994;28;20021;-74
2022/10/17 12:05:18;;;;;;;9.43;3.67;;;;;;;;;;5034028;28;20022;-75
2022/10/17 12:07:48;;;;;;;9.65;3.90;;;;;;;;;;5033771;28;20030;-75
2022/10/17 12:10:24;;;;;;;18.65;5.22;;;;;;;;;;5033948;28;20509;-76
2022/10/17 12:12:50;;;;;;;6.45;3.92;;;;;;;;;;5032993;28;20032;-73
2022/10/17 12:15:19;;;;;;;15.10;5.53;;;;;;;;;;5034431;28;20493;-75
2022/10/17 12:17:46;;;;;;;9.85;4.55;;;;;;;;;;5033920;28;20116;-74
2022/10/17 12:20:24;;;;;;;12.38;5.30;;;;;;;;;;5033210;28;20040;-73
2022/10/17 12:22:51;;;;;;;17.75;5.10;;;;;;;;;;5033534;28;20037;-74
2022/10/17 12:25:18;;;;;;;11.35;5.60;;;;;;;;;;5033391;28;20030;-75
2022/10/17 12:27:46;;;;;;;17.98;9.05;;;;;;;;;;5033027;28;20075;-74
2022/10/17 12:30:18;;;;;;;18.63;5.95;;;;;;;;;;5033011;28;20021;-74
2022/10/17 12:32:55;;;;;;;11.40;5.38;;;;;;;;;;5024151;28;20033;-75
2022/10/17 12:35:23;;;;;;;14.35;5.15;;;;;;;;;;5039518;28;20018;-75
2022/10/17 12:37:48;;;;;;;11.43;5.22;;;;;;;;;;5032977;28;20092;-74
2022/10/17 12:40:33;;;;;;;14.82;5.55;;;;;;;;;;5033549;28;20041;-76
2022/10/17 12:42:59;;;;;;;11.57;5.82;;;;;;;;;;5032424;28;20061;-73
2022/10/17 12:45:45;;;;;;;8.45;5.22;;;;;;;;;;5033530;28;20029;-73
2022/10/17 12:48:11;;;;;;;15.63;5.70;;;;;;;;;;5033744;28;20052;-75
2022/10/17 12:50:57;;;;;;;14.88;6.25;;;;;;;;;;5034075;28;20442;-77
2022/10/17 12:53:24;;;;;;;14.45;5.43;;;;;;;;;;5017523;28;20482;-76
2022/10/17 12:55:58;;;;;;;10.75;5.82;;;;;;;;;;5034616;28;20486;-76
2022/10/17 12:58:24;;;;;;;16.38;6.50;;;;;;;;;;5036697;28;20107;-76
2022/10/17 13:00:52;;;;;;;12.38;6.18;;;;;;;;;;5037201;28;20069;-76
2022/10/17 13:03:20;;;;;;;17.20;6.57;;;;;;;;;;5038317;28;20168;-75
2022/10/17 13:05:48;;;;;;;19.17;7.57;;;;;;;;;;5038285;28;20193;-77
2022/10/17 13:08:16;;;;;;;12.35;7.18;;;;;;;;;;5035596;28;20025;-74
2022/10/17 13:10:45;;;;;;;18.55;7.28;;;;;;;;;;5033939;28;20372;-75
2022/10/17 13:13:14;;;;;;;19.33;6.63;;;;;;;;;;5036554;28;20383;-75
2022/10/17 13:15:44;;;;;;;14.40;6.47;;;;;;;;;;5038835;28;20030;-75
2022/10/17 13:18:16;;;;;;;13.18;6.30;;;;;;;;;;5038325;28;20110;-75
2022/10/17 13:20:42;;;;;;;17.70;6.97;;;;;;;;;;5039197;28;20033;-75
2022/10/17 13:23:22;;;;;;;17.55;7.97;;;;;;;;;;5041452;28;20030;-76
2022/10/17 13:25:48;;;;;;;16.48;6.85;;;;;;;;;;5022787;28;20021;-75
2022/10/17 13:28:13;;;;;;;11.25;7.05;;;;;;;;;;5042326;28;20040;-75
2022/10/17 13:30:39;;;;;;;12.43;7.20;;;;;;;;;;5041413;28;20025;-76
2022/10/17 13:33:18;;;;;;;14.80;7.80;;;;;;;;;;5046326;28;20057;-74
2022/10/17 13:35:44;;;;;;;15.35;9.43;;;;;;;;;;5030815;28;20017;-75
2022/10/17 13:38:12;;;;;;;22.05;9.02;;;;;;;;;;5055888;28;20075;-75
2022/10/17 13:40:40;;;;;;;17.75;8.05;;;;;;;;;;5058582;28;20044;-73
2022/10/17 13:43:12;;;;;;;12.70;8.57;;;;;;;;;;5056159;28;20475;-75
2022/10/17 13:45:38;;;;;;;16.17;8.35;;;;;;;;;;5045068;28;20529;-75
2022/10/17 13:48:16;;;;;;;19.25;8.90;;;;;;;;;;5037562;28;20033;-76
2022/10/17 13:50:42;;;;;;;18.88;10.45;;;;;;;;;;5034908;28;20035;-75
2022/10/17 13:53:16;;;;;;;18.30;10.25;;;;;;;;;;5036239;28;20060;-73
2022/10/17 13:56:17;;;;;;;20.63;10.85;;;;;;;;;;5038107;28;20042;-76
2022/10/17 13:58:45;;;;;;;25.42;12.13;;;;;;;;;;4934194;29;20122;-76
2022/10/17 14:01:12;;;;;;;20.92;11.00;;;;;;;;;;5000189;28;20049;-75
2022/10/17 14:03:38;;;;;;;18.92;9.75;;;;;;;;;;4999348;28;20144;-77
2022/10/17 14:06:12;;;;;;;21.48;9.38;;;;;;;;;;5017632;28;20751;-74
2022/10/17 14:08:39;;;;;;;20.38;10.02;;;;;;;;;;5035414;28;20056;-75
2022/10/17 14:11:17;;;;;;;22.08;10.10;;;;;;;;;;5035571;28;20022;-75
2022/10/17 14:13:47;;;;;;;17.90;8.77;;;;;;;;;;5035053;28;20017;-76
2022/10/17 14:16:13;;;;;;;15.50;8.80;;;;;;;;;;5018238;28;20037;-77
2022/10/17 14:18:39;;;;;;;16.02;9.10;;;;;;;;;;5039651;28;20029;-77
2022/10/17 14:21:06;;;;;;;15.43;9.20;;;;;;;;;;5035310;28;20037;-77
2022/10/17 14:23:35;;;;;;;15.38;8.73;;;;;;;;;;5035248;28;20037;-78
2022/10/17 14:26:35;;;;;;;13.38;7.53;;;;;;;;;;5034973;28;20029;-75
2022/10/17 14:29:22;;;;;;;27.75;10.38;;;;;;;;;;5018518;28;20118;-77
2022/10/17 14:31:52;;;;;;;23.98;12.35;;;;;;;;;;5035570;28;20022;-76
2022/10/17 14:34:23;;;;;;;18.83;10.70;;;;;;;;;;5035493;28;20026;-76
2022/10/17 14:36:50;;;;;;;16.35;10.52;;;;;;;;;;5035228;28;20040;-76
2022/10/17 14:39:23;;;;;;;19.63;13.02;;;;;;;;;;5017804;28;20040;-76
2022/10/17 14:41:50;;;;;;;28.67;15.90;;;;;;;;;;5036573;28;20163;-75
2022/10/17 14:44:37;;;;;;;15.40;9.45;;;;;;;;;;5039238;28;20017;-76
2022/10/17 14:47:04;;;;;;;20.25;9.90;;;;;;;;;;5042869;28;20045;-77